Time;durP1;ratioP1;P1;durP2;ratioP2;P2;SDS_P1;SDS_P2;PMS_P1;PMS_P2;Temp;Humidity;BMP_temperature;BMP_pressure;BME280_temperature;BME280_humidity;BME280_pressure;Samples;Min_cycle;Max_cycle;Signal;HPM_P1;HPM_P2
2021/09/20 00:00:43;;;;;;;1.98;1.77;;;21.70;61.00;;;;;;5050726;28;20033;-56
2021/09/20 00:03:09;;;;;;;1.55;1.45;;;21.70;60.90;;;;;;5057099;28;20842;-59
2021/09/20 00:05:36;;;;;;;1.83;1.73;;;21.70;61.00;;;;;;5059964;28;20100;-59
2021/09/20 00:08:02;;;;;;;1.90;1.80;;;21.70;60.90;;;;;;5065586;28;20037;-58
2021/09/20 00:10:28;;;;;;;1.90;1.67;;;21.70;60.90;;;;;;5030045;28;20048;-59
2021/09/20 00:12:53;;;;;;;1.90;1.58;;;21.70;60.90;;;;;;5052236;28;20044;-55
2021/09/20 00:15:19;;;;;;;1.75;1.65;;;21.70;60.90;;;;;;5054498;28;20041;-57
2021/09/20 00:17:45;;;;;;;1.70;1.60;;;21.70;60.90;;;;;;5064813;28;20064;-58
2021/09/20 00:20:12;;;;;;;1.52;1.42;;;21.70;60.90;;;;;;5055512;28;20098;-60
2021/09/20 00:22:37;;;;;;;1.63;1.52;;;21.70;60.90;;;;;;5062442;28;20033;-57
2021/09/20 00:25:04;;;;;;;1.67;1.58;;;21.70;60.90;;;;;;5049121;28;20404;-58
2021/09/20 00:27:30;;;;;;;1.58;1.48;;;21.70;60.90;;;;;;5046612;28;20045;-58
2021/09/20 00:29:55;;;;;;;1.70;1.60;;;21.70;60.90;;;;;;5053060;28;20090;-58
2021/09/20 00:32:21;;;;;;;1.65;1.55;;;21.70;60.90;;;;;;5047682;28;20041;-58
2021/09/20 00:34:50;;;;;;;1.50;1.40;;;21.70;60.90;;;;;;5051589;28;20063;-58
2021/09/20 00:37:17;;;;;;;1.58;1.48;;;21.70;60.90;;;;;;5035978;28;20132;-59
2021/09/20 00:39:43;;;;;;;1.67;1.58;;;21.60;60.80;;;;;;5063328;28;20045;-58
2021/09/20 00:42:12;;;;;;;1.58;1.48;;;21.70;60.90;;;;;;5056895;28;20185;-56
2021/09/20 00:44:37;;;;;;;1.98;1.67;;;21.60;60.80;;;;;;5057721;28;20080;-55
2021/09/20 00:47:03;;;;;;;1.70;1.60;;;21.60;60.80;;;;;;5061783;28;20124;-58
2021/09/20 00:49:29;;;;;;;1.85;1.75;;;21.60;60.80;;;;;;5053417;28;20038;-58
2021/09/20 00:51:55;;;;;;;1.73;1.63;;;21.60;60.80;;;;;;5054335;28;20501;-58
2021/09/20 00:54:21;;;;;;;1.80;1.70;;;21.60;60.70;;;;;;5031242;28;20164;-56
2021/09/20 00:56:47;;;;;;;1.70;1.60;;;21.60;60.80;;;;;;5063076;28;20048;-57
2021/09/20 00:59:13;;;;;;;1.80;1.70;;;21.60;60.70;;;;;;5037218;28;20484;-58
2021/09/20 01:01:43;;;;;;;2.13;1.50;;;21.60;60.70;;;;;;5064339;28;20093;-58
2021/09/20 01:04:08;;;;;;;1.70;1.60;;;21.60;60.70;;;;;;5044208;28;20079;-59
2021/09/20 01:06:34;;;;;;;1.60;1.50;;;21.60;60.70;;;;;;5051266;28;20079;-59
2021/09/20 01:09:00;;;;;;;1.45;1.35;;;21.60;60.70;;;;;;5063179;28;20484;-60
2021/09/20 01:11:25;;;;;;;1.90;1.40;;;21.60;60.70;;;;;;5070465;28;20028;-57
2021/09/20 01:13:51;;;;;;;1.70;1.60;;;21.60;60.70;;;;;;5049519;28;20045;-59
2021/09/20 01:16:17;;;;;;;1.73;1.63;;;21.60;60.70;;;;;;5067115;28;20037;-57
2021/09/20 01:18:42;;;;;;;1.70;1.60;;;21.60;60.60;;;;;;5060842;28;20082;-56
2021/09/20 01:21:08;;;;;;;1.98;1.88;;;21.60;60.70;;;;;;5052438;28;20040;-57
2021/09/20 01:23:34;;;;;;;1.70;1.60;;;21.60;60.60;;;;;;5065494;28;20397;-58
2021/09/20 01:26:00;;;;;;;1.92;1.77;;;21.50;60.60;;;;;;5050733;28;20071;-57
2021/09/20 01:28:26;;;;;;;1.67;1.58;;;21.50;60.60;;;;;;5038573;28;20075;-58
2021/09/20 01:30:51;;;;;;;1.63;1.52;;;21.50;60.60;;;;;;5070460;28;20040;-56
2021/09/20 01:33:17;;;;;;;1.77;1.67;;;21.50;60.50;;;;;;5053445;28;20032;-60
2021/09/20 01:35:43;;;;;;;1.77;1.67;;;21.50;60.50;;;;;;5061152;28;20124;-58
2021/09/20 01:38:08;;;;;;;1.52;1.42;;;21.50;60.50;;;;;;5053664;28;20037;-56
2021/09/20 01:40:34;;;;;;;1.60;1.50;;;21.50;60.50;;;;;;5051928;28;20041;-58
2021/09/20 01:43:00;;;;;;;1.90;1.80;;;21.50;60.50;;;;;;5056966;28;20048;-58
2021/09/20 01:45:26;;;;;;;1.92;1.77;;;21.50;60.50;;;;;;5046018;28;20134;-58
2021/09/20 01:47:52;;;;;;;1.80;1.70;;;21.50;60.40;;;;;;5069623;28;20106;-56
2021/09/20 01:50:18;;;;;;;1.60;1.50;;;21.50;60.40;;;;;;5057104;28;20041;-58
2021/09/20 01:52:45;;;;;;;1.77;1.65;;;21.50;60.40;;;;;;5051885;28;20484;-56
2021/09/20 01:55:12;;;;;;;1.50;1.40;;;21.50;60.40;;;;;;5045216;28;20048;-55
2021/09/20 01:57:38;;;;;;;1.70;1.60;;;21.50;60.40;;;;;;5049696;28;20231;-60
2021/09/20 02:00:06;;;;;;;1.92;1.48;;;21.50;60.50;;;;;;5053902;28;20103;-56
2021/09/20 02:02:32;;;;;;;1.60;1.50;;;21.50;60.40;;;;;;5052060;28;20028;-58
2021/09/20 02:04:58;;;;;;;1.80;1.70;;;21.50;60.40;;;;;;5053811;28;20600;-56
2021/09/20 02:07:24;;;;;;;1.58;1.48;;;21.50;60.40;;;;;;5061738;28;20398;-57
2021/09/20 02:09:49;;;;;;;1.60;1.50;;;21.40;60.30;;;;;;5061231;28;20055;-57
2021/09/20 02:12:15;;;;;;;1.73;1.52;;;21.40;60.40;;;;;;5068430;28;20037;-59
2021/09/20 02:14:40;;;;;;;1.80;1.70;;;21.40;60.30;;;;;;5064029;28;20448;-58
2021/09/20 02:17:06;;;;;;;1.75;1.65;;;21.40;60.30;;;;;;5062830;28;20043;-58
2021/09/20 02:19:32;;;;;;;1.73;1.63;;;21.40;60.30;;;;;;5062058;28;20434;-57
2021/09/20 02:21:58;;;;;;;1.65;1.55;;;21.40;60.30;;;;;;5064315;28;20040;-58
2021/09/20 02:24:23;;;;;;;1.63;1.52;;;21.40;60.30;;;;;;5068527;28;20032;-58
2021/09/20 02:26:49;;;;;;;1.63;1.52;;;21.40;60.30;;;;;;5064088;28;20045;-56
2021/09/20 02:29:15;;;;;;;1.80;1.70;;;21.40;60.20;;;;;;5039445;28;20044;-59
2021/09/20 02:31:40;;;;;;;2.20;1.77;;;21.40;60.20;;;;;;5069125;28;20040;-58
2021/09/20 02:34:06;;;;;;;1.65;1.55;;;21.40;60.20;;;;;;5065800;28;20032;-58
2021/09/20 02:36:32;;;;;;;1.90;1.80;;;21.40;60.20;;;;;;5054409;28;20043;-58
2021/09/20 02:38:58;;;;;;;1.77;1.67;;;21.40;60.20;;;;;;5059009;28;20033;-58
2021/09/20 02:41:23;;;;;;;1.67;1.58;;;21.40;60.20;;;;;;5051396;28;20134;-58
2021/09/20 02:43:49;;;;;;;1.70;1.60;;;21.40;60.80;;;;;;5059795;28;20428;-58
2021/09/20 02:46:15;;;;;;;1.70;1.60;;;21.40;60.20;;;;;;5052898;28;20048;-59
2021/09/20 02:48:41;;;;;;;1.80;1.70;;;21.40;60.20;;;;;;5068575;28;20020;-56
2021/09/20 02:51:08;;;;;;;1.50;1.40;;;21.30;60.10;;;;;;5034335;28;20048;-57
2021/09/20 02:53:33;;;;;;;1.60;1.50;;;21.30;60.10;;;;;;5052464;28;20403;-58
2021/09/20 02:55:59;;;;;;;1.60;1.50;;;21.30;60.80;;;;;;5061046;28;20041;-58
2021/09/20 02:58:25;;;;;;;1.67;1.58;;;21.30;60.10;;;;;;5058565;28;20045;-56
2021/09/20 03:00:50;;;;;;;2.05;1.85;;;21.30;60.10;;;;;;5050527;28;20032;-58
2021/09/20 03:03:16;;;;;;;1.48;1.38;;;21.30;60.10;;;;;;5061651;28;20120;-58
2021/09/20 03:05:45;;;;;;;1.52;1.42;;;21.30;60.10;;;;;;5063404;28;20069;-59
2021/09/20 03:08:10;;;;;;;1.85;1.75;;;21.30;60.10;;;;;;5055783;28;20123;-57
2021/09/20 03:10:36;;;;;;;1.80;1.70;;;21.30;60.00;;;;;;5044653;28;20128;-58
2021/09/20 03:13:03;;;;;;;1.58;1.48;;;21.30;60.00;;;;;;5064222;28;20929;-58
2021/09/20 03:15:28;;;;;;;1.80;1.70;;;21.30;60.10;;;;;;5061458;28;20152;-57
2021/09/20 03:17:54;;;;;;;1.55;1.45;;;21.30;60.00;;;;;;5044533;28;20613;-58
2021/09/20 03:20:20;;;;;;;1.58;1.48;;;21.30;60.10;;;;;;5058802;28;20045;-58
2021/09/20 03:22:46;;;;;;;1.67;1.58;;;21.30;60.00;;;;;;5068551;28;20143;-57
2021/09/20 03:25:12;;;;;;;1.70;1.55;;;21.30;60.00;;;;;;5047755;28;20387;-57
2021/09/20 03:27:38;;;;;;;1.83;1.70;;;21.30;60.00;;;;;;5050905;28;20036;-57
2021/09/20 03:30:05;;;;;;;1.77;1.67;;;21.30;60.00;;;;;;5037655;28;20587;-58
2021/09/20 03:32:31;;;;;;;1.88;1.77;;;21.30;60.00;;;;;;5066573;28;20475;-55
2021/09/20 03:34:57;;;;;;;1.60;1.50;;;21.30;60.00;;;;;;5063478;28;20036;-57
2021/09/20 03:37:23;;;;;;;1.73;1.63;;;21.20;59.90;;;;;;5059316;28;20413;-58
2021/09/20 03:39:48;;;;;;;1.70;1.60;;;21.20;59.90;;;;;;5066073;28;20040;-58
2021/09/20 03:42:14;;;;;;;1.83;1.60;;;21.20;59.90;;;;;;5079901;28;20399;-57
2021/09/20 03:44:39;;;;;;;1.90;1.80;;;21.20;59.90;;;;;;5048359;28;20048;-57
2021/09/20 03:47:05;;;;;;;1.80;1.70;;;21.20;59.90;;;;;;5063244;28;20073;-56
2021/09/20 03:49:31;;;;;;;1.70;1.60;;;21.20;59.90;;;;;;5061108;28;20522;-58
2021/09/20 03:51:57;;;;;;;1.70;1.60;;;21.20;60.00;;;;;;5051256;28;20328;-58
2021/09/20 03:54:23;;;;;;;1.52;1.42;;;21.20;59.90;;;;;;5058546;28;20048;-58
2021/09/20 03:56:51;;;;;;;1.80;1.70;;;21.20;59.90;;;;;;5047996;28;20059;-57
2021/09/20 03:59:17;;;;;;;1.80;1.70;;;21.20;59.90;;;;;;5051610;28;20472;-57
2021/09/20 04:01:43;;;;;;;1.85;1.75;;;21.20;59.90;;;;;;5045967;28;20041;-57
2021/09/20 04:04:08;;;;;;;1.88;1.77;;;21.20;59.90;;;;;;5054751;28;20048;-58
2021/09/20 04:06:34;;;;;;;1.63;1.52;;;21.20;59.90;;;;;;5063090;28;20037;-55
2021/09/20 04:09:01;;;;;;;1.67;1.58;;;21.20;59.90;;;;;;5083404;28;20033;-57
2021/09/20 04:11:28;;;;;;;1.65;1.55;;;21.20;59.90;;;;;;5044092;28;20511;-56
2021/09/20 04:13:53;;;;;;;1.70;1.58;;;21.20;59.90;;;;;;5066180;28;20122;-58
2021/09/20 04:16:19;;;;;;;1.77;1.60;;;21.20;59.90;;;;;;5063542;28;20036;-57
2021/09/20 04:18:45;;;;;;;1.73;1.63;;;21.20;59.90;;;;;;5055866;28;20044;-56
2021/09/20 04:21:10;;;;;;;1.80;1.70;;;21.20;59.90;;;;;;5068751;28;20032;-58
2021/09/20 04:23:36;;;;;;;2.25;1.65;;;21.20;59.90;;;;;;5061357;28;20102;-58
2021/09/20 04:26:02;;;;;;;1.70;1.60;;;21.20;59.80;;;;;;5065504;28;20106;-58
2021/09/20 04:28:28;;;;;;;1.83;1.70;;;21.10;59.80;;;;;;5024241;28;20048;-57
2021/09/20 04:30:53;;;;;;;1.50;1.40;;;21.20;59.90;;;;;;5032494;28;20041;-58
2021/09/20 04:33:21;;;;;;;1.50;1.40;;;21.10;59.80;;;;;;5050026;28;20040;-58
2021/09/20 04:35:47;;;;;;;1.42;1.33;;;21.10;59.80;;;;;;5047958;28;20435;-59
2021/09/20 04:38:14;;;;;;;1.90;1.60;;;21.10;59.80;;;;;;5052304;28;20040;-58
2021/09/20 04:40:40;;;;;;;1.90;1.80;;;21.10;59.80;;;;;;5050984;28;20033;-58
2021/09/20 04:43:12;;;;;;;1.52;1.42;;;21.10;59.80;;;;;;5033488;28;20044;-58
2021/09/20 04:45:39;;;;;;;1.50;1.40;;;21.10;59.80;;;;;;5050397;28;20033;-57
2021/09/20 04:48:10;;;;;;;1.52;1.42;;;21.10;59.80;;;;;;5052783;28;20045;-59
2021/09/20 04:50:46;;;;;;;1.70;1.60;;;21.10;59.80;;;;;;5050563;28;20504;-61
2021/09/20 04:53:13;;;;;;;1.70;1.60;;;21.10;59.80;;;;;;5053506;28;20040;-58
2021/09/20 04:55:39;;;;;;;1.70;1.60;;;21.10;59.80;;;;;;5047761;28;20037;-60
2021/09/20 04:58:10;;;;;;;1.50;1.40;;;21.10;59.80;;;;;;5051821;28;20113;-60
2021/09/20 05:00:36;;;;;;;1.48;1.38;;;21.10;59.70;;;;;;5049546;28;20037;-56
2021/09/20 05:03:02;;;;;;;1.67;1.58;;;21.10;59.80;;;;;;5049630;28;20052;-60
2021/09/20 05:05:28;;;;;;;1.85;1.75;;;21.10;59.70;;;;;;5050727;28;20516;-60
2021/09/20 05:07:54;;;;;;;1.60;1.50;;;21.10;59.70;;;;;;5051644;28;20388;-61
2021/09/20 05:10:20;;;;;;;2.13;1.92;;;21.10;59.70;;;;;;5049554;28;20040;-59
2021/09/20 05:12:47;;;;;;;1.90;1.80;;;21.10;59.70;;;;;;5050935;28;20456;-59
2021/09/20 05:15:14;;;;;;;1.67;1.58;;;21.10;59.70;;;;;;5030332;28;20113;-60
2021/09/20 05:17:40;;;;;;;1.92;1.73;;;21.00;59.60;;;;;;5040923;28;20057;-60
2021/09/20 05:20:07;;;;;;;1.75;1.65;;;21.00;59.70;;;;;;5024739;28;20034;-61
2021/09/20 05:22:33;;;;;;;1.50;1.40;;;21.00;59.70;;;;;;5023986;28;20034;-60
2021/09/20 05:24:59;;;;;;;1.90;1.80;;;21.00;59.60;;;;;;5026869;28;20484;-60
2021/09/20 05:27:28;;;;;;;1.60;1.50;;;21.00;59.60;;;;;;5029746;28;20515;-61
2021/09/20 05:29:55;;;;;;;2.10;2.00;;;21.00;59.60;;;;;;5029324;28;20795;-62
2021/09/20 05:32:20;;;;;;;1.60;1.50;;;21.10;59.60;;;;;;5028871;28;20554;-58
2021/09/20 05:34:46;;;;;;;1.80;1.70;;;21.00;59.60;;;;;;5029012;28;20037;-58
2021/09/20 05:37:11;;;;;;;1.70;1.60;;;21.00;60.10;;;;;;5030403;28;20037;-58
2021/09/20 05:39:37;;;;;;;2.00;1.85;;;21.00;59.50;;;;;;5010820;28;20034;-58
2021/09/20 05:42:03;;;;;;;1.88;1.77;;;21.00;59.50;;;;;;5030357;28;20108;-58
2021/09/20 05:44:28;;;;;;;2.03;1.90;;;21.00;59.40;;;;;;5030287;28;20045;-58
2021/09/20 05:46:54;;;;;;;2.17;2.08;;;21.00;59.40;;;;;;5030257;28;20048;-60
2021/09/20 05:49:20;;;;;;;1.90;1.77;;;21.00;59.40;;;;;;5030681;28;20041;-60
2021/09/20 05:51:45;;;;;;;1.67;1.58;;;21.00;59.40;;;;;;5029894;28;20092;-60
2021/09/20 05:54:11;;;;;;;1.95;1.85;;;21.00;59.30;;;;;;5030084;28;20038;-60
2021/09/20 05:56:37;;;;;;;2.40;2.20;;;21.00;59.30;;;;;;5029914;28;20091;-58
2021/09/20 05:59:03;;;;;;;2.30;2.13;;;21.00;59.30;;;;;;5028959;28;20026;-61
2021/09/20 06:01:29;;;;;;;2.22;2.03;;;21.00;59.30;;;;;;5010508;28;20092;-60
2021/09/20 06:03:55;;;;;;;2.20;1.95;;;21.00;59.80;;;;;;5029011;28;20026;-61
2021/09/20 06:06:20;;;;;;;2.47;1.83;;;21.00;59.20;;;;;;5029678;28;20068;-61
2021/09/20 06:08:46;;;;;;;1.90;1.80;;;21.00;59.20;;;;;;5028902;28;20037;-61
2021/09/20 06:11:12;;;;;;;2.38;2.15;;;21.00;59.10;;;;;;5023137;28;20037;-60
2021/09/20 06:13:38;;;;;;;2.40;2.20;;;21.00;59.10;;;;;;5026813;28;20057;-59
2021/09/20 06:16:04;;;;;;;2.03;1.83;;;21.00;59.00;;;;;;5026457;28;20043;-59
2021/09/20 06:18:30;;;;;;;2.28;2.08;;;21.00;59.00;;;;;;5047120;28;20407;-60
2021/09/20 06:20:56;;;;;;;2.22;2.03;;;21.00;59.60;;;;;;5044110;28;20037;-59
2021/09/20 06:23:21;;;;;;;2.60;2.40;;;21.00;58.90;;;;;;5046446;28;20045;-59
2021/09/20 06:25:47;;;;;;;2.30;2.10;;;21.00;58.80;;;;;;5049606;28;20041;-59
2021/09/20 06:28:13;;;;;;;2.40;2.20;;;21.00;58.80;;;;;;5046501;28;20052;-59
2021/09/20 06:30:39;;;;;;;2.40;2.20;;;21.00;58.70;;;;;;5050494;28;20041;-59
2021/09/20 06:33:05;;;;;;;2.67;2.30;;;21.00;58.70;;;;;;5049071;28;20446;-60
2021/09/20 06:35:30;;;;;;;2.30;2.10;;;21.00;58.70;;;;;;5050907;28;20033;-60
2021/09/20 06:37:57;;;;;;;2.40;2.20;;;21.00;58.70;;;;;;5047755;28;20385;-60
2021/09/20 06:40:22;;;;;;;2.33;2.13;;;21.00;58.60;;;;;;5049954;28;20083;-58
2021/09/20 06:42:48;;;;;;;2.20;2.00;;;21.00;58.60;;;;;;5048057;28;20504;-60
2021/09/20 06:45:13;;;;;;;2.40;2.20;;;21.00;59.20;;;;;;5049976;28;20032;-58
2021/09/20 06:47:39;;;;;;;2.20;2.00;;;21.00;58.60;;;;;;5049983;28;20065;-58
2021/09/20 06:50:06;;;;;;;2.13;1.98;;;21.00;58.50;;;;;;5049842;28;20219;-57
2021/09/20 06:52:32;;;;;;;2.20;2.00;;;21.00;58.50;;;;;;5050178;28;20484;-58
2021/09/20 06:54:58;;;;;;;2.13;1.92;;;21.00;58.50;;;;;;5045800;28;20240;-63
2021/09/20 06:57:24;;;;;;;1.67;1.58;;;21.00;58.50;;;;;;5042661;28;20483;-61
2021/09/20 06:59:49;;;;;;;2.03;1.83;;;21.00;58.50;;;;;;5043748;28;20029;-59
2021/09/20 07:02:15;;;;;;;2.00;1.80;;;21.00;58.50;;;;;;5048180;28;20049;-61
2021/09/20 07:04:41;;;;;;;2.55;2.28;;;21.00;58.50;;;;;;5042867;28;20082;-62
2021/09/20 07:07:06;;;;;;;1.90;1.80;;;21.00;58.50;;;;;;5049014;28;20040;-61
2021/09/20 07:09:32;;;;;;;2.70;2.25;;;21.00;58.50;;;;;;5060110;28;20037;-61
2021/09/20 07:11:58;;;;;;;2.35;2.15;;;21.00;58.50;;;;;;5055769;28;20049;-62
2021/09/20 07:14:24;;;;;;;2.40;2.20;;;21.00;59.10;;;;;;5048469;28;20043;-62
2021/09/20 07:16:50;;;;;;;2.55;2.30;;;21.00;58.50;;;;;;5051643;28;20044;-60
2021/09/20 07:19:16;;;;;;;2.28;2.08;;;21.00;58.50;;;;;;5048029;28;20044;-62
2021/09/20 07:21:43;;;;;;;2.08;1.88;;;21.00;58.50;;;;;;5043251;28;20033;-60
2021/09/20 07:24:09;;;;;;;3.17;2.10;;;21.00;58.50;;;;;;5048382;28;20033;-56
2021/09/20 07:26:34;;;;;;;3.35;2.35;;;21.00;58.50;;;;;;5029417;28;20550;-58
2021/09/20 07:29:00;;;;;;;2.08;1.88;;;21.00;58.50;;;;;;5047367;28;20104;-58
2021/09/20 07:31:26;;;;;;;2.47;2.28;;;21.00;58.50;;;;;;5050262;28;20500;-57
2021/09/20 07:33:52;;;;;;;2.53;2.33;;;21.00;58.50;;;;;;5046747;28;20390;-59
2021/09/20 07:36:18;;;;;;;1.92;1.83;;;21.10;58.50;;;;;;5031455;28;20534;-60
2021/09/20 07:38:44;;;;;;;1.98;1.88;;;21.00;58.50;;;;;;5047665;28;20041;-63
2021/09/20 07:41:10;;;;;;;2.20;2.00;;;21.10;58.50;;;;;;5046376;28;20136;-59
2021/09/20 07:43:35;;;;;;;1.85;1.73;;;21.10;58.50;;;;;;5029893;28;20036;-61
2021/09/20 07:46:02;;;;;;;2.22;2.08;;;21.10;58.50;;;;;;5047204;28;20052;-60
2021/09/20 07:48:27;;;;;;;1.80;1.70;;;21.10;58.40;;;;;;5051028;28;20079;-61
2021/09/20 07:50:54;;;;;;;2.20;2.03;;;21.10;58.40;;;;;;5047933;28;20049;-60
2021/09/20 07:53:20;;;;;;;2.20;1.95;;;21.10;58.40;;;;;;5048242;28;20044;-61
2021/09/20 07:55:47;;;;;;;2.20;2.00;;;21.10;58.40;;;;;;5048462;28;20037;-60
2021/09/20 07:58:13;;;;;;;2.40;2.20;;;21.10;58.40;;;;;;5048210;28;20033;-60
2021/09/20 08:00:41;;;;;;;1.95;1.85;;;21.10;58.30;;;;;;5048800;28;20041;-60
2021/09/20 08:03:09;;;;;;;2.33;2.13;;;21.10;58.30;;;;;;5053484;28;20120;-60
2021/09/20 08:05:41;;;;;;;2.28;2.08;;;21.10;58.20;;;;;;5050333;28;20060;-60
2021/09/20 08:08:08;;;;;;;2.65;2.45;;;21.20;58.20;;;;;;5015990;28;20083;-63
2021/09/20 08:10:34;;;;;;;2.00;1.90;;;21.20;58.20;;;;;;5048635;28;20036;-63
2021/09/20 08:13:05;;;;;;;2.20;2.00;;;21.20;58.20;;;;;;5049890;28;20041;-63
2021/09/20 08:15:31;;;;;;;2.17;2.08;;;21.20;58.20;;;;;;5051837;28;20503;-62
2021/09/20 08:17:57;;;;;;;2.45;2.17;;;21.20;58.10;;;;;;5051817;28;20033;-62
2021/09/20 08:20:23;;;;;;;2.05;1.90;;;21.20;58.10;;;;;;5051305;28;20044;-63
2021/09/20 08:22:49;;;;;;;2.22;2.10;;;21.20;58.10;;;;;;5049911;28;20032;-63
2021/09/20 08:25:17;;;;;;;2.03;1.85;;;21.20;58.00;;;;;;5049188;28;20041;-63
2021/09/20 08:27:43;;;;;;;2.13;1.92;;;21.20;58.00;;;;;;5047871;28;20506;-60
2021/09/20 08:30:10;;;;;;;2.30;2.10;;;21.20;58.00;;;;;;5048824;28;20041;-59
2021/09/20 08:32:36;;;;;;;4.10;2.15;;;21.20;57.90;;;;;;5049335;28;20037;-58
2021/09/20 08:35:02;;;;;;;2.40;2.03;;;21.30;57.90;;;;;;5050620;28;20582;-62
2021/09/20 08:37:28;;;;;;;3.20;2.70;;;21.30;57.90;;;;;;5051263;28;20052;-61
2021/09/20 08:39:54;;;;;;;2.35;2.15;;;21.30;57.80;;;;;;5045851;28;20032;-61
2021/09/20 08:42:20;;;;;;;2.42;2.22;;;21.30;57.80;;;;;;5057423;28;20337;-60
2021/09/20 08:44:45;;;;;;;2.53;2.33;;;21.30;57.80;;;;;;5047378;28;20491;-60
2021/09/20 08:47:16;;;;;;;4.75;2.13;;;21.30;57.70;;;;;;5049343;28;20045;-55
2021/09/20 08:49:42;;;;;;;2.78;2.30;;;21.30;57.60;;;;;;5042686;28;20040;-58
2021/09/20 08:52:09;;;;;;;2.55;2.35;;;21.30;57.50;;;;;;5045966;28;20119;-52
2021/09/20 08:54:34;;;;;;;2.00;1.90;;;21.30;57.40;;;;;;5047359;28;20850;-57
2021/09/20 08:57:00;;;;;;;3.38;2.50;;;21.30;57.30;;;;;;5048298;28;20324;-57
2021/09/20 08:59:27;;;;;;;3.03;2.35;;;21.30;57.20;;;;;;5030461;28;20033;-54
2021/09/20 09:01:54;;;;;;;2.40;2.20;;;21.40;57.10;;;;;;5050835;28;20847;-54
2021/09/20 09:04:33;;;;;;;2.95;2.67;;;21.40;57.00;;;;;;5059654;28;20484;-56
2021/09/20 09:07:02;;;;;;;2.83;2.38;;;21.40;56.90;;;;;;5056515;28;20037;-51
2021/09/20 09:09:29;;;;;;;2.53;2.15;;;21.40;56.80;;;;;;5062317;28;20112;-57
2021/09/20 09:12:32;;;;;;;2.22;2.10;;;21.40;56.70;;;;;;5053680;28;20353;-52
2021/09/20 09:14:59;;;;;;;;;;;21.40;56.60;;;;;;4996080;28;20249;-51
2021/09/20 09:17:45;;;;;;;1.80;1.70;;;21.40;56.70;;;;;;5032743;28;19921;-52
2021/09/20 09:20:16;;;;;;;2.25;2.05;;;21.40;56.70;;;;;;5017186;28;20121;-50
2021/09/20 09:22:45;;;;;;;1.92;1.80;;;21.40;56.60;;;;;;5025903;28;20042;-55
2021/09/20 09:25:37;;;;;;;2.63;2.42;;;21.40;56.50;;;;;;5032489;28;20084;-52
2021/09/20 09:28:25;;;;;;;2.50;2.30;;;21.40;56.30;;;;;;5038838;28;20055;-56
2021/09/20 09:30:57;;;;;;;3.22;2.03;;;21.40;56.30;;;;;;5013065;28;20543;-57
2021/09/20 09:33:24;;;;;;;;;;;21.40;56.20;;;;;;5026389;28;20148;-56
2021/09/20 09:35:55;;;;;;;2.90;2.20;;;21.50;56.20;;;;;;5031954;28;19925;-53
2021/09/20 09:38:21;;;;;;;2.15;1.98;;;21.50;56.10;;;;;;5033301;28;20334;-55
2021/09/20 09:40:57;;;;;;;2.42;2.20;;;21.50;55.90;;;;;;4996971;28;20117;-56
2021/09/20 09:43:25;;;;;;;2.50;2.30;;;21.50;55.80;;;;;;5031890;28;20456;-56
2021/09/20 09:45:52;;;;;;;2.22;2.03;;;21.50;55.70;;;;;;5033635;28;20504;-51
2021/09/20 09:48:20;;;;;;;2.15;2.03;;;21.50;55.60;;;;;;5028939;28;20034;-56
2021/09/20 09:50:51;;;;;;;2.47;2.22;;;21.50;55.60;;;;;;5027228;28;20045;-57
2021/09/20 09:53:26;;;;;;;2.15;1.95;;;21.50;55.40;;;;;;5039975;28;20040;-57
2021/09/20 09:55:54;;;;;;;2.30;2.10;;;21.60;55.40;;;;;;5029166;28;20575;-57
2021/09/20 09:58:20;;;;;;;3.13;2.40;;;21.60;55.30;;;;;;5028834;28;20203;-56
2021/09/20 10:00:46;;;;;;;2.50;2.30;;;21.60;55.10;;;;;;5013698;28;20349;-55
2021/09/20 10:03:12;;;;;;;2.40;2.20;;;21.60;55.10;;;;;;5028208;28;20029;-56
2021/09/20 10:05:38;;;;;;;2.50;2.30;;;21.60;55.00;;;;;;5034006;28;20546;-52
2021/09/20 10:08:11;;;;;;;2.15;1.95;;;21.60;54.80;;;;;;5042286;28;20049;-56
2021/09/20 10:10:39;;;;;;;2.42;2.20;;;21.60;54.70;;;;;;5047914;28;20073;-55
2021/09/20 10:13:07;;;;;;;2.42;2.22;;;21.60;54.70;;;;;;5033611;28;20045;-52
2021/09/20 10:15:34;;;;;;;2.20;2.00;;;21.60;54.60;;;;;;5034765;28;20377;-55
2021/09/20 10:18:01;;;;;;;3.20;2.70;;;21.70;54.70;;;;;;5055659;28;20067;-55
2021/09/20 10:20:28;;;;;;;2.40;2.20;;;21.70;54.60;;;;;;5061097;28;20025;-53
2021/09/20 10:22:55;;;;;;;2.65;2.42;;;21.70;54.60;;;;;;5039089;28;20507;-52
2021/09/20 10:25:26;;;;;;;2.75;2.10;;;21.70;54.50;;;;;;5063695;28;20035;-50
2021/09/20 10:27:52;;;;;;;2.53;2.33;;;21.70;54.40;;;;;;5045027;28;20115;-49
2021/09/20 10:30:23;;;;;;;3.70;2.25;;;21.70;54.40;;;;;;5062979;28;20119;-49
2021/09/20 10:32:59;;;;;;;2.40;2.20;;;21.70;54.40;;;;;;5054745;28;20029;-52
2021/09/20 10:35:38;;;;;;;2.75;2.40;;;21.70;54.30;;;;;;5042307;28;20043;-50
2021/09/20 10:38:23;;;;;;;2.45;2.25;;;21.70;54.30;;;;;;5034882;28;20392;-52
2021/09/20 10:41:24;;;;;;;2.63;2.42;;;21.70;54.20;;;;;;5057035;28;20476;-50
2021/09/20 10:44:06;;;;;;;1.90;1.80;;;21.70;54.10;;;;;;5040213;28;20060;-51
2021/09/20 10:46:38;;;;;;;2.30;2.10;;;21.70;54.00;;;;;;5048006;28;20107;-53
2021/09/20 10:49:05;;;;;;;2.20;2.00;;;21.70;54.00;;;;;;5055129;28;20468;-50
2021/09/20 10:51:39;;;;;;;3.10;2.50;;;21.70;54.00;;;;;;5053078;28;20033;-51
2021/09/20 10:54:17;;;;;;;2.28;2.08;;;21.70;54.60;;;;;;5049203;28;20507;-52
2021/09/20 10:56:44;;;;;;;2.90;2.70;;;21.80;54.10;;;;;;5048481;28;20028;-52
2021/09/20 10:59:09;;;;;;;2.83;2.63;;;21.80;54.10;;;;;;5038834;28;20120;-48
2021/09/20 11:01:37;;;;;;;2.38;2.17;;;21.70;54.00;;;;;;5048519;28;20112;-51
2021/09/20 11:04:25;;;;;;;2.10;1.90;;;21.80;54.00;;;;;;5040155;28;20083;-54
2021/09/20 11:07:07;;;;;;;2.15;1.98;;;21.80;54.00;;;;;;5050794;28;20106;-51
2021/09/20 11:09:41;;;;;;;2.17;1.98;;;21.70;53.90;;;;;;5065683;28;20031;-50
2021/09/20 11:12:10;;;;;;;2.28;2.08;;;21.70;53.90;;;;;;5044013;28;20796;-51
2021/09/20 11:14:37;;;;;;;2.15;2.00;;;21.70;53.90;;;;;;5043095;28;20087;-51
2021/09/20 11:17:24;;;;;;;2.47;2.28;;;21.80;53.90;;;;;;5044355;28;20072;-50
2021/09/20 11:19:53;;;;;;;2.17;2.00;;;21.80;53.90;;;;;;5045288;28;20098;-52
2021/09/20 11:22:22;;;;;;;2.10;2.00;;;21.80;54.50;;;;;;5048173;28;20139;-52
2021/09/20 11:24:50;;;;;;;2.75;2.55;;;21.80;53.90;;;;;;5046872;28;20111;-55
2021/09/20 11:27:44;;;;;;;2.30;2.10;;;21.80;53.90;;;;;;5045301;28;20033;-55
2021/09/20 11:30:15;;;;;;;2.28;2.08;;;21.80;53.90;;;;;;5044373;28;20176;-54
2021/09/20 11:32:46;;;;;;;2.45;2.25;;;21.80;53.90;;;;;;5044980;28;21285;-50
2021/09/20 11:35:12;;;;;;;2.60;2.40;;;21.80;53.90;;;;;;5044180;28;20112;-52
2021/09/20 11:37:38;;;;;;;2.60;2.17;;;21.80;53.90;;;;;;5045307;28;20075;-53
2021/09/20 11:40:11;;;;;;;2.35;2.15;;;21.80;53.90;;;;;;5046629;28;20542;-54
2021/09/20 11:42:37;;;;;;;2.45;2.25;;;21.80;53.90;;;;;;5045999;28;20033;-50
2021/09/20 11:45:12;;;;;;;2.38;2.17;;;21.80;53.90;;;;;;5046829;28;20033;-54
2021/09/20 11:47:42;;;;;;;2.05;1.90;;;21.80;54.00;;;;;;5046564;28;20072;-50
2021/09/20 11:50:28;;;;;;;2.50;2.30;;;21.80;54.00;;;;;;5045817;28;20037;-53
2021/09/20 11:53:00;;;;;;;2.30;2.10;;;21.80;54.00;;;;;;5045648;28;20049;-51
2021/09/20 11:55:38;;;;;;;2.45;2.15;;;21.80;54.00;;;;;;5045380;28;20124;-52
2021/09/20 11:58:06;;;;;;;3.20;2.78;;;21.80;54.10;;;;;;5041991;28;20044;-55
2021/09/20 12:00:37;;;;;;;2.50;2.17;;;21.80;54.10;;;;;;5048300;28;20087;-55
2021/09/20 12:03:08;;;;;;;2.63;2.35;;;21.80;54.20;;;;;;5045450;28;20484;-57
2021/09/20 12:05:40;;;;;;;2.60;2.40;;;21.80;54.20;;;;;;5030611;28;20037;-57
2021/09/20 12:08:32;;;;;;;2.03;1.92;;;21.80;54.20;;;;;;5029499;28;20079;-54
2021/09/20 12:10:58;;;;;;;2.20;2.10;;;21.80;54.20;;;;;;5008982;28;20158;-54
2021/09/20 12:13:29;;;;;;;2.15;1.98;;;21.70;54.20;;;;;;5045543;28;20144;-52
2021/09/20 12:16:05;;;;;;;2.10;1.92;;;21.70;54.30;;;;;;5048334;28;20098;-52
2021/09/20 12:18:31;;;;;;;2.40;2.20;;;21.80;54.30;;;;;;5047693;28;20037;-54
2021/09/20 12:21:09;;;;;;;4.20;2.45;;;21.70;54.30;;;;;;5027324;28;20475;-53
2021/09/20 12:23:44;;;;;;;2.20;2.03;;;21.80;54.40;;;;;;5057288;28;20116;-54
2021/09/20 12:26:15;;;;;;;2.38;2.17;;;21.80;54.50;;;;;;5034315;28;20045;-55
2021/09/20 12:28:54;;;;;;;2.85;2.53;;;21.70;54.50;;;;;;5028411;28;20039;-55
2021/09/20 12:31:23;;;;;;;2.30;2.13;;;21.80;54.50;;;;;;5045381;28;20067;-58
2021/09/20 12:33:59;;;;;;;3.40;2.58;;;21.70;54.60;;;;;;5038830;28;20466;-58
2021/09/20 12:36:33;;;;;;;2.30;2.17;;;21.80;54.70;;;;;;5058145;28;20089;-57
2021/09/20 12:39:00;;;;;;;2.67;2.35;;;21.80;54.80;;;;;;5063864;28;20045;-58
2021/09/20 12:41:40;;;;;;;2.50;2.30;;;21.80;54.80;;;;;;5055175;28;20029;-58
2021/09/20 12:44:08;;;;;;;2.40;2.20;;;21.80;54.80;;;;;;5040542;28;20388;-57
2021/09/20 12:46:36;;;;;;;2.30;2.20;;;21.80;54.80;;;;;;5050813;28;20025;-53
2021/09/20 12:49:04;;;;;;;3.40;2.08;;;21.80;54.80;;;;;;5052325;28;20060;-57
2021/09/20 12:51:39;;;;;;;2.40;1.90;;;21.80;54.80;;;;;;5043370;28;20049;-58